sensor_id;sensor_type;location;lat;lon;timestamp;pressure;altitude;pressure_sealevel;temperature;humidity
44453;BME280;30155;52.164;21.236;2023-04-20T00:03:42;100835.89;;;8.67;70.55
44453;BME280;30155;52.164;21.236;2023-04-20T00:08:36;100838.96;;;8.66;70.67
44453;BME280;30155;52.164;21.236;2023-04-20T00:13:28;100842.16;;;8.69;70.60
44453;BME280;30155;52.164;21.236;2023-04-20T00:18:21;100836.33;;;8.71;70.69
44453;BME280;30155;52.164;21.236;2023-04-20T00:23:14;100828.41;;;8.72;70.80
44453;BME280;30155;52.164;21.236;2023-04-20T00:28:06;100829.42;;;8.71;70.65
44453;BME280;30155;52.164;21.236;2023-04-20T00:33:00;100831.42;;;8.68;70.87
44453;BME280;30155;52.164;21.236;2023-04-20T00:37:53;100833.58;;;8.65;70.73
44453;BME280;30155;52.164;21.236;2023-04-20T00:42:49;100834.14;;;8.60;70.95
44453;BME280;30155;52.164;21.236;2023-04-20T00:47:41;100837.66;;;8.56;71.03
44453;BME280;30155;52.164;21.236;2023-04-20T00:52:34;100840.09;;;8.56;70.87
44453;BME280;30155;52.164;21.236;2023-04-20T00:57:27;100842.38;;;8.58;71.04
44453;BME280;30155;52.164;21.236;2023-04-20T01:02:20;100843.52;;;8.62;71.13
44453;BME280;30155;52.164;21.236;2023-04-20T01:07:13;100837.57;;;8.66;71.28
44453;BME280;30155;52.164;21.236;2023-04-20T01:12:06;100836.11;;;8.69;71.04
44453;BME280;30155;52.164;21.236;2023-04-20T01:17:00;100832.57;;;8.72;71.09
44453;BME280;30155;52.164;21.236;2023-04-20T01:21:54;100833.00;;;8.76;70.88
44453;BME280;30155;52.164;21.236;2023-04-20T01:26:47;100834.11;;;8.79;71.07
44453;BME280;30155;52.164;21.236;2023-04-20T01:31:40;100832.09;;;8.81;70.95
44453;BME280;30155;52.164;21.236;2023-04-20T01:36:33;100829.56;;;8.84;70.99
44453;BME280;30155;52.164;21.236;2023-04-20T01:41:26;100826.70;;;8.86;70.92
44453;BME280;30155;52.164;21.236;2023-04-20T01:46:20;100822.38;;;8.87;70.93
44453;BME280;30155;52.164;21.236;2023-04-20T01:51:13;100822.08;;;8.88;71.00
44453;BME280;30155;52.164;21.236;2023-04-20T01:56:05;100825.55;;;8.89;71.05
44453;BME280;30155;52.164;21.236;2023-04-20T02:01:01;100822.65;;;8.90;71.00
44453;BME280;30155;52.164;21.236;2023-04-20T02:05:54;100828.55;;;8.91;70.82
44453;BME280;30155;52.164;21.236;2023-04-20T02:10:50;100830.11;;;8.91;71.05
44453;BME280;30155;52.164;21.236;2023-04-20T02:15:42;100826.61;;;8.90;71.07
44453;BME280;30155;52.164;21.236;2023-04-20T02:20:36;100824.52;;;8.89;71.08
44453;BME280;30155;52.164;21.236;2023-04-20T02:25:29;100824.50;;;8.89;71.35
44453;BME280;30155;52.164;21.236;2023-04-20T02:30:22;100820.98;;;8.87;71.20
44453;BME280;30155;52.164;21.236;2023-04-20T02:35:15;100822.69;;;8.85;71.33
44453;BME280;30155;52.164;21.236;2023-04-20T02:40:07;100825.92;;;8.84;71.59
44453;BME280;30155;52.164;21.236;2023-04-20T02:45:00;100830.75;;;8.83;71.39
44453;BME280;30155;52.164;21.236;2023-04-20T02:49:54;100835.25;;;8.83;71.63
44453;BME280;30155;52.164;21.236;2023-04-20T02:54:47;100834.08;;;8.84;71.33
44453;BME280;30155;52.164;21.236;2023-04-20T02:59:41;100834.95;;;8.85;71.49
44453;BME280;30155;52.164;21.236;2023-04-20T03:04:59;100832.56;;;8.86;71.54
44453;BME280;30155;52.164;21.236;2023-04-20T03:10:01;100830.13;;;8.85;71.65
44453;BME280;30155;52.164;21.236;2023-04-20T03:15:12;100823.84;;;8.83;71.69
44453;BME280;30155;52.164;21.236;2023-04-20T03:20:28;100831.80;;;8.76;71.67
44453;BME280;30155;52.164;21.236;2023-04-20T03:25:21;100835.27;;;8.70;71.70
44453;BME280;30155;52.164;21.236;2023-04-20T03:30:29;100839.96;;;8.65;72.07
44453;BME280;30155;52.164;21.236;2023-04-20T03:35:28;100841.17;;;8.59;72.06
44453;BME280;30155;52.164;21.236;2023-04-20T03:40:22;100842.50;;;8.56;72.27
44453;BME280;30155;52.164;21.236;2023-04-20T03:45:14;100842.77;;;8.53;72.22
44453;BME280;30155;52.164;21.236;2023-04-20T03:50:07;100845.84;;;8.52;72.42
44453;BME280;30155;52.164;21.236;2023-04-20T03:55:02;100854.17;;;8.53;72.36
44453;BME280;30155;52.164;21.236;2023-04-20T03:59:55;100856.31;;;8.56;72.16
44453;BME280;30155;52.164;21.236;2023-04-20T04:04:49;100861.77;;;8.60;72.11
44453;BME280;30155;52.164;21.236;2023-04-20T04:09:46;100863.64;;;8.65;72.11
44453;BME280;30155;52.164;21.236;2023-04-20T04:14:39;100861.55;;;8.70;72.09
44453;BME280;30155;52.164;21.236;2023-04-20T04:19:32;100858.77;;;8.77;72.03
44453;BME280;30155;52.164;21.236;2023-04-20T04:24:26;100859.48;;;8.84;72.10
44453;BME280;30155;52.164;21.236;2023-04-20T04:29:24;100857.83;;;8.93;71.85
44453;BME280;30155;52.164;21.236;2023-04-20T04:34:17;100858.16;;;9.07;71.86
44453;BME280;30155;52.164;21.236;2023-04-20T04:39:14;100864.08;;;9.22;71.78
44453;BME280;30155;52.164;21.236;2023-04-20T04:44:15;100875.73;;;9.38;71.57
44453;BME280;30155;52.164;21.236;2023-04-20T04:49:08;100876.92;;;9.52;71.27
44453;BME280;30155;52.164;21.236;2023-04-20T04:54:04;100881.46;;;9.69;71.24
44453;BME280;30155;52.164;21.236;2023-04-20T04:58:56;100883.40;;;9.93;71.01
44453;BME280;30155;52.164;21.236;2023-04-20T05:03:49;100890.08;;;10.21;70.53
44453;BME280;30155;52.164;21.236;2023-04-20T05:08:42;100887.11;;;10.53;70.31
44453;BME280;30155;52.164;21.236;2023-04-20T05:13:35;100892.79;;;10.78;69.98
44453;BME280;30155;52.164;21.236;2023-04-20T05:18:27;100902.11;;;10.85;69.85
44453;BME280;30155;52.164;21.236;2023-04-20T05:23:21;100902.21;;;10.82;69.75
44453;BME280;30155;52.164;21.236;2023-04-20T05:28:13;100907.04;;;10.89;69.40
44453;BME280;30155;52.164;21.236;2023-04-20T05:33:06;100909.98;;;10.89;69.34
44453;BME280;30155;52.164;21.236;2023-04-20T05:37:59;100918.48;;;10.89;69.24
44453;BME280;30155;52.164;21.236;2023-04-20T05:42:54;100921.55;;;10.95;69.18
44453;BME280;30155;52.164;21.236;2023-04-20T05:47:56;100922.56;;;11.13;68.99
44453;BME280;30155;52.164;21.236;2023-04-20T05:52:49;100926.61;;;11.36;68.64
44453;BME280;30155;52.164;21.236;2023-04-20T05:57:42;100926.30;;;11.48;68.28
44453;BME280;30155;52.164;21.236;2023-04-20T06:02:35;100928.70;;;11.68;68.03
44453;BME280;30155;52.164;21.236;2023-04-20T06:07:28;100928.55;;;11.91;67.68
44453;BME280;30155;52.164;21.236;2023-04-20T06:12:21;100925.17;;;12.22;67.36
44453;BME280;30155;52.164;21.236;2023-04-20T06:17:16;100924.10;;;12.61;66.71
44453;BME280;30155;52.164;21.236;2023-04-20T06:22:09;100924.80;;;13.10;66.06
44453;BME280;30155;52.164;21.236;2023-04-20T06:27:02;100926.23;;;13.47;65.32
44453;BME280;30155;52.164;21.236;2023-04-20T06:31:55;100927.04;;;13.61;64.77
44453;BME280;30155;52.164;21.236;2023-04-20T06:36:48;100928.73;;;13.55;64.36
44453;BME280;30155;52.164;21.236;2023-04-20T06:41:41;100930.56;;;13.65;63.89
44453;BME280;30155;52.164;21.236;2023-04-20T06:46:35;100928.21;;;14.39;62.70
44453;BME280;30155;52.164;21.236;2023-04-20T06:51:28;100926.56;;;15.31;61.63
44453;BME280;30155;52.164;21.236;2023-04-20T06:56:22;100922.67;;;16.22;60.42
44453;BME280;30155;52.164;21.236;2023-04-20T07:01:14;100922.11;;;17.52;58.64
44453;BME280;30155;52.164;21.236;2023-04-20T07:06:07;100920.82;;;18.89;55.79
44453;BME280;30155;52.164;21.236;2023-04-20T07:11:01;100925.37;;;19.49;54.57
44453;BME280;30155;52.164;21.236;2023-04-20T07:15:54;100920.91;;;20.57;53.22
44453;BME280;30155;52.164;21.236;2023-04-20T07:20:47;100920.29;;;21.18;51.28
44453;BME280;30155;52.164;21.236;2023-04-20T07:25:40;100926.89;;;20.58;51.56
44453;BME280;30155;52.164;21.236;2023-04-20T07:30:32;100926.28;;;21.09;50.88
44453;BME280;30155;52.164;21.236;2023-04-20T07:35:25;100917.55;;;23.32;48.21
44453;BME280;30155;52.164;21.236;2023-04-20T07:40:18;100916.98;;;25.69;45.30
44453;BME280;30155;52.164;21.236;2023-04-20T07:45:11;100920.79;;;25.59;44.55
44453;BME280;30155;52.164;21.236;2023-04-20T07:50:04;100922.92;;;25.20;43.36
44453;BME280;30155;52.164;21.236;2023-04-20T07:54:57;100929.36;;;25.10;42.78
44453;BME280;30155;52.164;21.236;2023-04-20T07:59:51;100929.77;;;26.61;40.76
44453;BME280;30155;52.164;21.236;2023-04-20T08:04:43;100928.56;;;27.64;39.62
44453;BME280;30155;52.164;21.236;2023-04-20T08:09:37;100926.11;;;28.39;38.42
44453;BME280;30155;52.164;21.236;2023-04-20T08:14:30;100930.23;;;27.72;38.54
44453;BME280;30155;52.164;21.236;2023-04-20T08:19:24;100922.66;;;27.18;38.02
44453;BME280;30155;52.164;21.236;2023-04-20T08:24:20;100920.70;;;28.94;35.88
44453;BME280;30155;52.164;21.236;2023-04-20T08:29:12;100925.06;;;29.62;34.33
44453;BME280;30155;52.164;21.236;2023-04-20T08:34:05;100930.30;;;28.96;33.00
44453;BME280;30155;52.164;21.236;2023-04-20T08:39:12;100926.26;;;28.45;33.25
44453;BME280;30155;52.164;21.236;2023-04-20T08:44:05;100932.80;;;27.21;33.69
44453;BME280;30155;52.164;21.236;2023-04-20T08:48:59;100922.46;;;26.31;34.37
44453;BME280;30155;52.164;21.236;2023-04-20T08:53:53;100927.33;;;26.30;34.02
44453;BME280;30155;52.164;21.236;2023-04-20T08:58:46;100934.07;;;25.11;33.07
44453;BME280;30155;52.164;21.236;2023-04-20T09:03:55;100933.69;;;24.38;33.49
44453;BME280;30155;52.164;21.236;2023-04-20T09:08:49;100933.48;;;24.14;33.65
44453;BME280;30155;52.164;21.236;2023-04-20T09:13:42;100923.14;;;25.01;33.27
44453;BME280;30155;52.164;21.236;2023-04-20T09:18:35;100918.69;;;26.08;32.85
44453;BME280;30155;52.164;21.236;2023-04-20T09:23:28;100925.65;;;27.37;30.95
44453;BME280;30155;52.164;21.236;2023-04-20T09:28:20;100925.91;;;27.57;30.42
44453;BME280;30155;52.164;21.236;2023-04-20T09:33:13;100919.73;;;27.52;30.03
44453;BME280;30155;52.164;21.236;2023-04-20T09:38:09;100921.82;;;27.85;29.03
44453;BME280;30155;52.164;21.236;2023-04-20T09:43:04;100920.09;;;26.60;29.27
44453;BME280;30155;52.164;21.236;2023-04-20T09:47:59;100922.53;;;26.49;29.31
44453;BME280;30155;52.164;21.236;2023-04-20T09:52:52;100916.75;;;28.05;28.71
44453;BME280;30155;52.164;21.236;2023-04-20T09:57:45;100918.77;;;28.62;27.82
44453;BME280;30155;52.164;21.236;2023-04-20T10:02:40;100914.88;;;30.24;26.77
44453;BME280;30155;52.164;21.236;2023-04-20T10:07:34;100918.94;;;28.46;26.85
44453;BME280;30155;52.164;21.236;2023-04-20T10:12:27;100920.98;;;26.63;27.72
44453;BME280;30155;52.164;21.236;2023-04-20T10:17:27;100911.64;;;28.70;26.47
44453;BME280;30155;52.164;21.236;2023-04-20T10:22:24;100906.22;;;30.28;24.98
44453;BME280;30155;52.164;21.236;2023-04-20T10:27:19;100898.28;;;31.08;25.13
44453;BME280;30155;52.164;21.236;2023-04-20T10:32:25;100893.54;;;32.52;24.28
44453;BME280;30155;52.164;21.236;2023-04-20T10:37:19;100888.77;;;32.73;22.69
44453;BME280;30155;52.164;21.236;2023-04-20T10:42:12;100893.42;;;31.35;23.03
44453;BME280;30155;52.164;21.236;2023-04-20T10:47:08;100895.25;;;29.59;24.74
44453;BME280;30155;52.164;21.236;2023-04-20T10:52:01;100898.27;;;27.72;25.20
44453;BME280;30155;52.164;21.236;2023-04-20T10:56:54;100891.49;;;28.39;24.36
44453;BME280;30155;52.164;21.236;2023-04-20T11:01:48;100891.87;;;26.43;24.94
44453;BME280;30155;52.164;21.236;2023-04-20T11:06:42;100896.30;;;25.54;25.69
44453;BME280;30155;52.164;21.236;2023-04-20T11:11:35;100892.88;;;24.34;26.19
44453;BME280;30155;52.164;21.236;2023-04-20T11:16:28;100892.98;;;24.18;26.61
44453;BME280;30155;52.164;21.236;2023-04-20T11:21:39;100886.35;;;24.33;26.75
44453;BME280;30155;52.164;21.236;2023-04-20T11:26:33;100883.86;;;25.38;26.49
44453;BME280;30155;52.164;21.236;2023-04-20T11:31:26;100884.99;;;24.23;27.03
44453;BME280;30155;52.164;21.236;2023-04-20T11:36:20;100879.32;;;25.10;26.77
44453;BME280;30155;52.164;21.236;2023-04-20T11:41:13;100878.33;;;25.64;26.84
44453;BME280;30155;52.164;21.236;2023-04-20T11:46:17;100872.77;;;25.78;26.28
44453;BME280;30155;52.164;21.236;2023-04-20T11:51:11;100868.97;;;25.47;26.90
44453;BME280;30155;52.164;21.236;2023-04-20T11:56:04;100862.02;;;25.47;26.62
44453;BME280;30155;52.164;21.236;2023-04-20T12:00:57;100860.50;;;25.54;26.56
44453;BME280;30155;52.164;21.236;2023-04-20T12:05:50;100854.62;;;24.94;26.05
44453;BME280;30155;52.164;21.236;2023-04-20T12:10:43;100863.23;;;23.37;26.49
44453;BME280;30155;52.164;21.236;2023-04-20T12:15:37;100867.92;;;22.44;27.63
44453;BME280;30155;52.164;21.236;2023-04-20T12:20:30;100870.66;;;22.04;28.08
44453;BME280;30155;52.164;21.236;2023-04-20T12:25:23;100861.98;;;21.99;28.47
44453;BME280;30155;52.164;21.236;2023-04-20T12:30:15;100846.75;;;22.83;28.54
44453;BME280;30155;52.164;21.236;2023-04-20T12:35:08;100841.48;;;23.63;27.47
44453;BME280;30155;52.164;21.236;2023-04-20T12:40:01;100847.82;;;22.89;26.91
44453;BME280;30155;52.164;21.236;2023-04-20T12:44:56;100849.37;;;21.95;27.24
44453;BME280;30155;52.164;21.236;2023-04-20T12:49:49;100850.95;;;21.34;28.02
44453;BME280;30155;52.164;21.236;2023-04-20T12:54:42;100845.66;;;21.21;28.47
44453;BME280;30155;52.164;21.236;2023-04-20T12:59:35;100829.52;;;22.04;29.03
44453;BME280;30155;52.164;21.236;2023-04-20T13:04:28;100824.77;;;22.64;27.84
44453;BME280;30155;52.164;21.236;2023-04-20T13:09:21;100821.98;;;23.23;27.01
44453;BME280;30155;52.164;21.236;2023-04-20T13:14:17;100820.13;;;22.70;26.78
44453;BME280;30155;52.164;21.236;2023-04-20T13:19:11;100824.59;;;21.91;27.16
44453;BME280;30155;52.164;21.236;2023-04-20T13:24:03;100823.65;;;21.27;27.67
44453;BME280;30155;52.164;21.236;2023-04-20T13:28:56;100821.16;;;21.14;28.25
44453;BME280;30155;52.164;21.236;2023-04-20T13:33:49;100814.48;;;21.86;27.73
44453;BME280;30155;52.164;21.236;2023-04-20T13:38:45;100805.23;;;22.43;27.46
44453;BME280;30155;52.164;21.236;2023-04-20T13:43:39;100803.98;;;22.95;27.26
44453;BME280;30155;52.164;21.236;2023-04-20T13:48:32;100804.89;;;23.10;26.92
44453;BME280;30155;52.164;21.236;2023-04-20T13:53:24;100810.21;;;22.31;26.64
44453;BME280;30155;52.164;21.236;2023-04-20T13:58:17;100814.67;;;22.30;26.83
44453;BME280;30155;52.164;21.236;2023-04-20T14:03:10;100810.91;;;22.49;26.81
44453;BME280;30155;52.164;21.236;2023-04-20T14:08:04;100817.36;;;22.22;26.87
44453;BME280;30155;52.164;21.236;2023-04-20T14:12:58;100817.48;;;21.68;27.14
44453;BME280;30155;52.164;21.236;2023-04-20T14:17:52;100818.75;;;21.32;27.43
44453;BME280;30155;52.164;21.236;2023-04-20T14:22:45;100817.33;;;21.47;27.35
44453;BME280;30155;52.164;21.236;2023-04-20T14:27:37;100808.54;;;21.72;27.56
44453;BME280;30155;52.164;21.236;2023-04-20T14:32:30;100807.17;;;22.38;27.29
44453;BME280;30155;52.164;21.236;2023-04-20T14:37:23;100811.50;;;22.23;27.06
44453;BME280;30155;52.164;21.236;2023-04-20T14:42:17;100814.45;;;21.62;27.63
44453;BME280;30155;52.164;21.236;2023-04-20T14:47:10;100812.27;;;21.09;28.08
44453;BME280;30155;52.164;21.236;2023-04-20T14:52:03;100813.28;;;20.75;28.21
44453;BME280;30155;52.164;21.236;2023-04-20T14:56:55;100809.52;;;20.54;28.27
44453;BME280;30155;52.164;21.236;2023-04-20T15:01:48;100806.23;;;20.60;28.59
44453;BME280;30155;52.164;21.236;2023-04-20T15:06:52;100803.11;;;21.17;28.48
44453;BME280;30155;52.164;21.236;2023-04-20T15:11:45;100798.10;;;21.73;28.21
44453;BME280;30155;52.164;21.236;2023-04-20T15:16:38;100798.77;;;21.87;27.64
44453;BME280;30155;52.164;21.236;2023-04-20T15:21:31;100806.52;;;21.42;27.36
44453;BME280;30155;52.164;21.236;2023-04-20T15:26:23;100808.59;;;20.87;27.80
44453;BME280;30155;52.164;21.236;2023-04-20T15:31:16;100807.04;;;20.55;28.05
44453;BME280;30155;52.164;21.236;2023-04-20T15:36:10;100809.55;;;20.45;28.35
44453;BME280;30155;52.164;21.236;2023-04-20T15:41:02;100806.84;;;20.64;28.42
44453;BME280;30155;52.164;21.236;2023-04-20T15:45:55;100808.99;;;20.63;28.19
44453;BME280;30155;52.164;21.236;2023-04-20T15:50:51;100810.59;;;20.29;28.40
44453;BME280;30155;52.164;21.236;2023-04-20T15:55:44;100808.20;;;20.18;28.33
44453;BME280;30155;52.164;21.236;2023-04-20T16:00:38;100810.44;;;19.95;28.71
44453;BME280;30155;52.164;21.236;2023-04-20T16:05:31;100813.34;;;19.62;28.99
44453;BME280;30155;52.164;21.236;2023-04-20T16:10:24;100817.45;;;19.29;29.13
44453;BME280;30155;52.164;21.236;2023-04-20T16:15:18;100817.74;;;19.00;29.45
44453;BME280;30155;52.164;21.236;2023-04-20T16:20:11;100815.55;;;18.82;29.57
44453;BME280;30155;52.164;21.236;2023-04-20T16:25:04;100820.02;;;18.90;29.68
44453;BME280;30155;52.164;21.236;2023-04-20T16:29:57;100819.05;;;18.97;29.85
44453;BME280;30155;52.164;21.236;2023-04-20T16:34:51;100820.41;;;18.98;29.90
44453;BME280;30155;52.164;21.236;2023-04-20T16:39:43;100819.79;;;18.93;30.17
44453;BME280;30155;52.164;21.236;2023-04-20T16:44:36;100821.02;;;18.81;30.38
44453;BME280;30155;52.164;21.236;2023-04-20T16:49:32;100824.08;;;18.65;30.53
44453;BME280;30155;52.164;21.236;2023-04-20T16:54:24;100833.58;;;18.50;30.88
44453;BME280;30155;52.164;21.236;2023-04-20T16:59:17;100838.91;;;18.32;31.10
44453;BME280;30155;52.164;21.236;2023-04-20T17:04:10;100842.13;;;18.13;31.41
44453;BME280;30155;52.164;21.236;2023-04-20T17:09:03;100846.05;;;17.92;31.53
44453;BME280;30155;52.164;21.236;2023-04-20T17:13:57;100849.57;;;17.71;32.08
44453;BME280;30155;52.164;21.236;2023-04-20T17:18:50;100855.29;;;17.43;33.19
44453;BME280;30155;52.164;21.236;2023-04-20T17:23:43;100859.21;;;17.12;33.74
44453;BME280;30155;52.164;21.236;2023-04-20T17:28:37;100858.56;;;16.80;34.55
44453;BME280;30155;52.164;21.236;2023-04-20T17:33:30;100861.52;;;16.49;35.55
44453;BME280;30155;52.164;21.236;2023-04-20T17:38:23;100865.49;;;16.19;35.94
44453;BME280;30155;52.164;21.236;2023-04-20T17:43:16;100875.03;;;15.90;36.69
44453;BME280;30155;52.164;21.236;2023-04-20T17:48:09;100877.49;;;15.58;37.53
44453;BME280;30155;52.164;21.236;2023-04-20T17:53:02;100880.30;;;15.25;38.07
44453;BME280;30155;52.164;21.236;2023-04-20T17:57:57;100878.54;;;14.97;38.85
44453;BME280;30155;52.164;21.236;2023-04-20T18:02:50;100884.07;;;14.72;39.21
44453;BME280;30155;52.164;21.236;2023-04-20T18:07:43;100886.93;;;14.49;39.57
44453;BME280;30155;52.164;21.236;2023-04-20T18:12:36;100884.58;;;14.28;40.03
44453;BME280;30155;52.164;21.236;2023-04-20T18:17:32;100890.23;;;14.06;40.69
44453;BME280;30155;52.164;21.236;2023-04-20T18:22:25;100889.06;;;13.84;41.02
44453;BME280;30155;52.164;21.236;2023-04-20T18:27:18;100894.85;;;13.66;41.70
44453;BME280;30155;52.164;21.236;2023-04-20T18:32:11;100896.65;;;13.50;41.92
44453;BME280;30155;52.164;21.236;2023-04-20T18:37:06;100902.77;;;13.32;42.15
44453;BME280;30155;52.164;21.236;2023-04-20T18:42:00;100904.16;;;13.15;42.66
44453;BME280;30155;52.164;21.236;2023-04-20T18:46:52;100904.52;;;12.98;43.10
44453;BME280;30155;52.164;21.236;2023-04-20T18:51:45;100903.66;;;12.83;43.53
44453;BME280;30155;52.164;21.236;2023-04-20T18:56:38;100911.48;;;12.67;43.73
44453;BME280;30155;52.164;21.236;2023-04-20T19:01:31;100908.52;;;12.52;44.15
44453;BME280;30155;52.164;21.236;2023-04-20T19:06:25;100918.10;;;12.39;44.54
44453;BME280;30155;52.164;21.236;2023-04-20T19:11:18;100915.49;;;12.25;45.14
44453;BME280;30155;52.164;21.236;2023-04-20T19:16:11;100919.45;;;12.10;45.36
44453;BME280;30155;52.164;21.236;2023-04-20T19:21:04;100925.69;;;11.97;45.46
44453;BME280;30155;52.164;21.236;2023-04-20T19:25:57;100931.52;;;11.83;45.97
44453;BME280;30155;52.164;21.236;2023-04-20T19:30:49;100928.05;;;11.70;46.33
44453;BME280;30155;52.164;21.236;2023-04-20T19:35:42;100931.69;;;11.60;46.86
44453;BME280;30155;52.164;21.236;2023-04-20T19:40:41;100930.98;;;11.48;47.29
44453;BME280;30155;52.164;21.236;2023-04-20T19:45:33;100931.58;;;11.32;47.53
44453;BME280;30155;52.164;21.236;2023-04-20T19:50:26;100930.17;;;11.21;48.03
44453;BME280;30155;52.164;21.236;2023-04-20T19:55:19;100930.19;;;11.12;48.36
44453;BME280;30155;52.164;21.236;2023-04-20T20:00:12;100936.11;;;11.04;48.68
44453;BME280;30155;52.164;21.236;2023-04-20T20:05:06;100933.88;;;10.95;49.00
44453;BME280;30155;52.164;21.236;2023-04-20T20:09:59;100932.46;;;10.85;49.17
44453;BME280;30155;52.164;21.236;2023-04-20T20:14:52;100934.02;;;10.76;49.42
44453;BME280;30155;52.164;21.236;2023-04-20T20:19:45;100937.88;;;10.70;49.82
44453;BME280;30155;52.164;21.236;2023-04-20T20:24:40;100938.20;;;10.60;49.80
44453;BME280;30155;52.164;21.236;2023-04-20T20:29:35;100938.91;;;10.52;49.94
44453;BME280;30155;52.164;21.236;2023-04-20T20:34:28;100938.39;;;10.44;50.21
44453;BME280;30155;52.164;21.236;2023-04-20T20:39:21;100936.37;;;10.38;50.46
44453;BME280;30155;52.164;21.236;2023-04-20T20:44:14;100941.39;;;10.31;50.48
44453;BME280;30155;52.164;21.236;2023-04-20T20:49:08;100940.66;;;10.22;50.99
44453;BME280;30155;52.164;21.236;2023-04-20T20:54:01;100940.06;;;10.18;51.11
44453;BME280;30155;52.164;21.236;2023-04-20T20:58:54;100941.93;;;10.17;51.27
44453;BME280;30155;52.164;21.236;2023-04-20T21:03:47;100940.36;;;10.16;51.35
44453;BME280;30155;52.164;21.236;2023-04-20T21:08:40;100945.00;;;10.15;51.51
44453;BME280;30155;52.164;21.236;2023-04-20T21:13:33;100947.75;;;10.13;51.48
44453;BME280;30155;52.164;21.236;2023-04-20T21:18:26;100941.88;;;10.14;51.21
44453;BME280;30155;52.164;21.236;2023-04-20T21:23:19;100945.60;;;10.18;51.36
44453;BME280;30155;52.164;21.236;2023-04-20T21:28:12;100942.86;;;10.20;51.05
44453;BME280;30155;52.164;21.236;2023-04-20T21:33:05;100940.59;;;10.19;51.42
44453;BME280;30155;52.164;21.236;2023-04-20T21:37:57;100939.47;;;10.15;51.05
44453;BME280;30155;52.164;21.236;2023-04-20T21:42:51;100938.02;;;10.20;50.42
44453;BME280;30155;52.164;21.236;2023-04-20T21:47:46;100942.44;;;10.31;49.94
44453;BME280;30155;52.164;21.236;2023-04-20T21:52:39;100940.52;;;10.39;49.81
44453;BME280;30155;52.164;21.236;2023-04-20T21:57:32;100932.52;;;10.45;49.60
44453;BME280;30155;52.164;21.236;2023-04-20T22:02:25;100931.31;;;10.46;49.64
44453;BME280;30155;52.164;21.236;2023-04-20T22:07:19;100931.34;;;10.47;49.52
44453;BME280;30155;52.164;21.236;2023-04-20T22:12:14;100937.05;;;10.46;49.41
44453;BME280;30155;52.164;21.236;2023-04-20T22:17:10;100941.05;;;10.47;49.38
44453;BME280;30155;52.164;21.236;2023-04-20T22:22:05;100941.00;;;10.44;49.41
44453;BME280;30155;52.164;21.236;2023-04-20T22:26:58;100939.45;;;10.45;49.43
44453;BME280;30155;52.164;21.236;2023-04-20T22:31:53;100942.23;;;10.45;49.51
44453;BME280;30155;52.164;21.236;2023-04-20T22:36:45;100943.94;;;10.44;49.43
44453;BME280;30155;52.164;21.236;2023-04-20T22:41:39;100945.08;;;10.40;49.49
44453;BME280;30155;52.164;21.236;2023-04-20T22:46:31;100949.20;;;10.39;49.54
44453;BME280;30155;52.164;21.236;2023-04-20T22:51:24;100947.42;;;10.37;49.68
44453;BME280;30155;52.164;21.236;2023-04-20T22:56:19;100944.26;;;10.35;49.64
44453;BME280;30155;52.164;21.236;2023-04-20T23:01:12;100945.96;;;10.34;49.65
44453;BME280;30155;52.164;21.236;2023-04-20T23:06:04;100940.33;;;10.30;49.87
44453;BME280;30155;52.164;21.236;2023-04-20T23:10:57;100939.50;;;10.24;49.90
44453;BME280;30155;52.164;21.236;2023-04-20T23:15:50;100939.04;;;10.19;50.11
44453;BME280;30155;52.164;21.236;2023-04-20T23:20:43;100940.47;;;10.13;50.11
44453;BME280;30155;52.164;21.236;2023-04-20T23:25:36;100941.63;;;10.03;50.58
44453;BME280;30155;52.164;21.236;2023-04-20T23:30:29;100943.40;;;9.90;50.90
44453;BME280;30155;52.164;21.236;2023-04-20T23:35:22;100939.55;;;9.80;51.01
44453;BME280;30155;52.164;21.236;2023-04-20T23:40:15;100939.19;;;9.72;51.24
44453;BME280;30155;52.164;21.236;2023-04-20T23:45:08;100937.17;;;9.61;51.52
44453;BME280;30155;52.164;21.236;2023-04-20T23:50:00;100939.55;;;9.51;51.85
44453;BME280;30155;52.164;21.236;2023-04-20T23:54:53;100937.88;;;9.47;51.71
44453;BME280;30155;52.164;21.236;2023-04-20T23:59:46;100938.98;;;9.43;51.87
